sensor_id;sensor_type;location;lat;lon;timestamp;pressure;altitude;pressure_sealevel;temperature;humidity
64908;BME280;51412;52.236;5.188;2022-08-21T00:01:13;101671.28;;;17.82;73.09
64908;BME280;51412;52.236;5.188;2022-08-21T00:03:40;101678.19;;;17.83;73.25
64908;BME280;51412;52.236;5.188;2022-08-21T00:06:07;101672.81;;;17.83;72.95
64908;BME280;51412;52.236;5.188;2022-08-21T00:08:33;101652.88;;;17.77;73.33
64908;BME280;51412;52.236;5.188;2022-08-21T00:11:00;101666.69;;;17.82;73.25
64908;BME280;51412;52.236;5.188;2022-08-21T00:13:28;101661.28;;;17.86;73.29
64908;BME280;51412;52.236;5.188;2022-08-21T00:15:54;101669.34;;;17.86;73.33
64908;BME280;51412;52.236;5.188;2022-08-21T00:18:21;101665.88;;;17.85;73.06
64908;BME280;51412;52.236;5.188;2022-08-21T00:20:48;101674.72;;;17.86;72.69
64908;BME280;51412;52.236;5.188;2022-08-21T00:23:15;101664.72;;;17.87;72.73
64908;BME280;51412;52.236;5.188;2022-08-21T00:25:42;101661.28;;;17.86;72.83
64908;BME280;51412;52.236;5.188;2022-08-21T00:28:09;101655.53;;;17.84;73.08
64908;BME280;51412;52.236;5.188;2022-08-21T00:30:38;101645.16;;;17.82;72.64
64908;BME280;51412;52.236;5.188;2022-08-21T00:33:06;101650.16;;;17.80;72.87
64908;BME280;51412;52.236;5.188;2022-08-21T00:35:36;101649.78;;;17.78;72.84
64908;BME280;51412;52.236;5.188;2022-08-21T00:38:03;101637.91;;;17.76;72.91
64908;BME280;51412;52.236;5.188;2022-08-21T00:40:34;101649.00;;;17.78;72.96
64908;BME280;51412;52.236;5.188;2022-08-21T00:43:02;101644.81;;;17.77;72.93
64908;BME280;51412;52.236;5.188;2022-08-21T00:45:29;101649.81;;;17.75;73.28
64908;BME280;51412;52.236;5.188;2022-08-21T00:47:58;101641.38;;;17.73;73.39
64908;BME280;51412;52.236;5.188;2022-08-21T00:50:27;101636.00;;;17.69;73.39
64908;BME280;51412;52.236;5.188;2022-08-21T00:52:55;101646.38;;;17.71;73.84
64908;BME280;51412;52.236;5.188;2022-08-21T00:55:22;101646.00;;;17.68;73.56
64908;BME280;51412;52.236;5.188;2022-08-21T00:57:52;101646.75;;;17.69;73.58
64908;BME280;51412;52.236;5.188;2022-08-21T01:00:23;101649.06;;;17.71;73.56
64908;BME280;51412;52.236;5.188;2022-08-21T01:02:49;101639.84;;;17.72;73.68
64908;BME280;51412;52.236;5.188;2022-08-21T01:05:17;101646.78;;;17.65;73.48
64908;BME280;51412;52.236;5.188;2022-08-21T01:07:44;101655.22;;;17.67;73.34
64908;BME280;51412;52.236;5.188;2022-08-21T01:10:11;101637.94;;;17.68;73.54
64908;BME280;51412;52.236;5.188;2022-08-21T01:12:38;101641.00;;;17.71;73.56
64908;BME280;51412;52.236;5.188;2022-08-21T01:15:07;101649.84;;;17.71;73.32
64908;BME280;51412;52.236;5.188;2022-08-21T01:17:35;101639.47;;;17.70;73.40
64908;BME280;51412;52.236;5.188;2022-08-21T01:20:07;101655.22;;;17.71;73.55
64908;BME280;51412;52.236;5.188;2022-08-21T01:22:36;101648.31;;;17.70;73.46
64908;BME280;51412;52.236;5.188;2022-08-21T01:25:04;101648.69;;;17.68;73.41
64908;BME280;51412;52.236;5.188;2022-08-21T01:27:31;101645.63;;;17.66;73.57
64908;BME280;51412;52.236;5.188;2022-08-21T01:30:02;101645.25;;;17.64;73.78
64908;BME280;51412;52.236;5.188;2022-08-21T01:32:33;101654.47;;;17.63;73.52
64908;BME280;51412;52.236;5.188;2022-08-21T01:34:59;101648.34;;;17.59;73.51
64908;BME280;51412;52.236;5.188;2022-08-21T01:37:26;101649.09;;;17.60;73.81
64908;BME280;51412;52.236;5.188;2022-08-21T01:39:54;101646.41;;;17.60;73.83
64908;BME280;51412;52.236;5.188;2022-08-21T01:42:20;101644.50;;;17.60;73.98
64908;BME280;51412;52.236;5.188;2022-08-21T01:44:47;101643.72;;;17.60;73.90
64908;BME280;51412;52.236;5.188;2022-08-21T01:47:14;101644.88;;;17.59;73.99
64908;BME280;51412;52.236;5.188;2022-08-21T01:49:42;101642.22;;;17.55;73.75
64908;BME280;51412;52.236;5.188;2022-08-21T01:52:09;101639.53;;;17.55;73.91
64908;BME280;51412;52.236;5.188;2022-08-21T01:54:37;101639.56;;;17.51;74.06
64908;BME280;51412;52.236;5.188;2022-08-21T01:57:05;101637.63;;;17.52;74.06
64908;BME280;51412;52.236;5.188;2022-08-21T01:59:34;101641.47;;;17.51;74.20
64908;BME280;51412;52.236;5.188;2022-08-21T02:02:01;101623.81;;;17.50;74.11
64908;BME280;51412;52.236;5.188;2022-08-21T02:04:28;101623.06;;;17.49;74.11
64908;BME280;51412;52.236;5.188;2022-08-21T02:06:55;101624.97;;;17.49;74.00
64908;BME280;51412;52.236;5.188;2022-08-21T02:09:22;101631.88;;;17.50;74.10
64908;BME280;51412;52.236;5.188;2022-08-21T02:11:49;101626.13;;;17.48;74.03
64908;BME280;51412;52.236;5.188;2022-08-21T02:14:18;101616.56;;;17.43;74.01
64908;BME280;51412;52.236;5.188;2022-08-21T02:16:45;101636.50;;;17.46;74.19
64908;BME280;51412;52.236;5.188;2022-08-21T02:19:14;101628.06;;;17.44;74.09
64908;BME280;51412;52.236;5.188;2022-08-21T02:21:41;101620.78;;;17.41;74.23
64908;BME280;51412;52.236;5.188;2022-08-21T02:24:08;101617.72;;;17.39;74.43
64908;BME280;51412;52.236;5.188;2022-08-21T02:26:35;101621.56;;;17.38;74.67
64908;BME280;51412;52.236;5.188;2022-08-21T02:29:03;101623.09;;;17.39;74.68
64908;BME280;51412;52.236;5.188;2022-08-21T02:31:31;101616.19;;;17.38;74.42
64908;BME280;51412;52.236;5.188;2022-08-21T02:33:57;101613.91;;;17.36;74.58
64908;BME280;51412;52.236;5.188;2022-08-21T02:36:25;101609.28;;;17.37;74.76
64908;BME280;51412;52.236;5.188;2022-08-21T02:38:51;101614.28;;;17.34;74.74
64908;BME280;51412;52.236;5.188;2022-08-21T02:41:20;101612.75;;;17.33;74.88
64908;BME280;51412;52.236;5.188;2022-08-21T02:43:47;101606.59;;;17.33;74.76
64908;BME280;51412;52.236;5.188;2022-08-21T02:46:16;101608.94;;;17.31;75.08
64908;BME280;51412;52.236;5.188;2022-08-21T02:48:44;101609.31;;;17.29;74.98
64908;BME280;51412;52.236;5.188;2022-08-21T02:51:13;101611.63;;;17.27;74.96
64908;BME280;51412;52.236;5.188;2022-08-21T02:53:41;101606.63;;;17.26;75.19
64908;BME280;51412;52.236;5.188;2022-08-21T02:56:10;101608.19;;;17.27;75.17
64908;BME280;51412;52.236;5.188;2022-08-21T02:58:39;101598.97;;;17.24;75.33
64908;BME280;51412;52.236;5.188;2022-08-21T03:01:07;101602.41;;;17.25;75.13
64908;BME280;51412;52.236;5.188;2022-08-21T03:03:35;101597.06;;;17.21;75.43
64908;BME280;51412;52.236;5.188;2022-08-21T03:06:03;101598.59;;;17.22;75.31
64908;BME280;51412;52.236;5.188;2022-08-21T03:08:30;101597.44;;;17.23;75.39
64908;BME280;51412;52.236;5.188;2022-08-21T03:10:56;101597.06;;;17.21;75.52
64908;BME280;51412;52.236;5.188;2022-08-21T03:13:26;101602.44;;;17.21;75.72
64908;BME280;51412;52.236;5.188;2022-08-21T03:15:54;101598.22;;;17.20;75.95
64908;BME280;51412;52.236;5.188;2022-08-21T03:18:21;101594.41;;;17.17;75.95
64908;BME280;51412;52.236;5.188;2022-08-21T03:20:47;101589.38;;;17.20;76.01
64908;BME280;51412;52.236;5.188;2022-08-21T03:23:17;101589.78;;;17.18;75.77
64908;BME280;51412;52.236;5.188;2022-08-21T03:25:44;101593.63;;;17.17;75.86
64908;BME280;51412;52.236;5.188;2022-08-21T03:28:12;101589.78;;;17.18;75.96
64908;BME280;51412;52.236;5.188;2022-08-21T03:30:40;101594.41;;;17.14;76.17
64908;BME280;51412;52.236;5.188;2022-08-21T03:33:06;101592.50;;;17.11;76.10
64908;BME280;51412;52.236;5.188;2022-08-21T03:35:33;101584.03;;;17.09;76.24
64908;BME280;51412;52.236;5.188;2022-08-21T03:38:00;101590.22;;;17.06;76.40
64908;BME280;51412;52.236;5.188;2022-08-21T03:40:28;101592.53;;;17.04;76.47
64908;BME280;51412;52.236;5.188;2022-08-21T03:42:55;101581.78;;;17.00;76.28
64908;BME280;51412;52.236;5.188;2022-08-21T03:45:21;101583.72;;;16.99;76.75
64908;BME280;51412;52.236;5.188;2022-08-21T03:47:53;101580.66;;;16.97;76.72
64908;BME280;51412;52.236;5.188;2022-08-21T03:50:20;101579.09;;;16.96;76.67
64908;BME280;51412;52.236;5.188;2022-08-21T03:52:47;101569.91;;;16.94;76.72
64908;BME280;51412;52.236;5.188;2022-08-21T03:55:14;101581.03;;;16.92;76.93
64908;BME280;51412;52.236;5.188;2022-08-21T03:57:42;101571.44;;;16.91;76.84
64908;BME280;51412;52.236;5.188;2022-08-21T04:00:11;101577.19;;;16.90;77.15
64908;BME280;51412;52.236;5.188;2022-08-21T04:02:38;101569.16;;;16.90;77.42
64908;BME280;51412;52.236;5.188;2022-08-21T04:05:06;101567.22;;;16.87;77.18
64908;BME280;51412;52.236;5.188;2022-08-21T04:07:33;101565.31;;;16.91;77.21
64908;BME280;51412;52.236;5.188;2022-08-21T04:10:00;101565.72;;;16.89;77.22
64908;BME280;51412;52.236;5.188;2022-08-21T04:12:27;101569.16;;;16.90;77.10
64908;BME280;51412;52.236;5.188;2022-08-21T04:14:54;101570.66;;;16.87;77.04
64908;BME280;51412;52.236;5.188;2022-08-21T04:17:21;101570.28;;;16.85;76.98
64908;BME280;51412;52.236;5.188;2022-08-21T04:19:48;101577.59;;;16.84;76.99
64908;BME280;51412;52.236;5.188;2022-08-21T04:22:15;101576.81;;;16.84;77.04
64908;BME280;51412;52.236;5.188;2022-08-21T04:24:42;101586.41;;;16.81;76.97
64908;BME280;51412;52.236;5.188;2022-08-21T04:27:09;101578.75;;;16.80;77.20
64908;BME280;51412;52.236;5.188;2022-08-21T04:29:36;101582.97;;;16.77;77.36
64908;BME280;51412;52.236;5.188;2022-08-21T04:32:04;101576.44;;;16.75;77.20
64908;BME280;51412;52.236;5.188;2022-08-21T04:34:31;101589.88;;;16.75;77.27
64908;BME280;51412;52.236;5.188;2022-08-21T04:36:57;101581.81;;;16.75;77.15
64908;BME280;51412;52.236;5.188;2022-08-21T04:39:24;101584.13;;;16.73;77.16
64908;BME280;51412;52.236;5.188;2022-08-21T04:41:50;101591.78;;;16.71;77.48
64908;BME280;51412;52.236;5.188;2022-08-21T04:44:17;101588.75;;;16.69;77.31
64908;BME280;51412;52.236;5.188;2022-08-21T04:46:43;101595.63;;;16.70;77.28
64908;BME280;51412;52.236;5.188;2022-08-21T04:49:11;101593.34;;;16.64;77.57
64908;BME280;51412;52.236;5.188;2022-08-21T04:51:38;101599.88;;;16.63;77.30
64908;BME280;51412;52.236;5.188;2022-08-21T04:54:09;101606.38;;;16.62;77.50
64908;BME280;51412;52.236;5.188;2022-08-21T04:56:40;101598.72;;;16.64;77.65
64908;BME280;51412;52.236;5.188;2022-08-21T04:59:13;101604.06;;;16.68;77.57
64908;BME280;51412;52.236;5.188;2022-08-21T05:01:42;101603.31;;;16.71;77.43
64908;BME280;51412;52.236;5.188;2022-08-21T05:04:13;101599.47;;;16.69;77.71
64908;BME280;51412;52.236;5.188;2022-08-21T05:06:41;101601.75;;;16.66;77.63
64908;BME280;51412;52.236;5.188;2022-08-21T05:09:12;101610.22;;;16.69;77.74
64908;BME280;51412;52.236;5.188;2022-08-21T05:11:41;101594.09;;;16.69;77.86
64908;BME280;51412;52.236;5.188;2022-08-21T05:14:08;101609.03;;;16.70;78.33
64908;BME280;51412;52.236;5.188;2022-08-21T05:16:34;101606.38;;;16.73;78.35
64908;BME280;51412;52.236;5.188;2022-08-21T05:19:01;101603.28;;;16.75;78.57
64908;BME280;51412;52.236;5.188;2022-08-21T05:21:29;101609.81;;;16.77;78.32
64908;BME280;51412;52.236;5.188;2022-08-21T05:23:55;101604.03;;;16.79;78.39
64908;BME280;51412;52.236;5.188;2022-08-21T05:26:22;101610.97;;;16.83;78.53
64908;BME280;51412;52.236;5.188;2022-08-21T05:28:48;101610.56;;;16.85;78.44
64908;BME280;51412;52.236;5.188;2022-08-21T05:31:15;101602.13;;;16.87;78.31
64908;BME280;51412;52.236;5.188;2022-08-21T05:33:41;101608.28;;;16.91;78.08
64908;BME280;51412;52.236;5.188;2022-08-21T05:36:08;101610.22;;;16.90;78.49
64908;BME280;51412;52.236;5.188;2022-08-21T05:38:36;101615.56;;;16.97;78.33
64908;BME280;51412;52.236;5.188;2022-08-21T05:41:02;101608.25;;;16.98;78.31
64908;BME280;51412;52.236;5.188;2022-08-21T05:43:29;101611.72;;;16.98;78.46
64908;BME280;51412;52.236;5.188;2022-08-21T05:45:55;101617.44;;;17.00;78.52
64908;BME280;51412;52.236;5.188;2022-08-21T05:48:23;101605.56;;;16.98;78.75
64908;BME280;51412;52.236;5.188;2022-08-21T05:50:52;101611.69;;;17.06;79.20
64908;BME280;51412;52.236;5.188;2022-08-21T05:53:20;101612.81;;;17.15;79.25
64908;BME280;51412;52.236;5.188;2022-08-21T05:55:48;101613.56;;;17.23;79.49
64908;BME280;51412;52.236;5.188;2022-08-21T05:58:18;101616.19;;;17.38;82.46
64908;BME280;51412;52.236;5.188;2022-08-21T06:00:46;101615.69;;;17.64;83.22
64908;BME280;51412;52.236;5.188;2022-08-21T06:03:14;101607.53;;;17.82;81.20
64908;BME280;51412;52.236;5.188;2022-08-21T06:05:42;101610.09;;;18.08;80.79
64908;BME280;51412;52.236;5.188;2022-08-21T06:08:08;101606.50;;;18.25;79.96
64908;BME280;51412;52.236;5.188;2022-08-21T06:10:35;101601.72;;;18.44;79.77
64908;BME280;51412;52.236;5.188;2022-08-21T06:13:03;101606.59;;;18.56;78.57
64908;BME280;51412;52.236;5.188;2022-08-21T06:15:30;101613.88;;;18.59;78.12
64908;BME280;51412;52.236;5.188;2022-08-21T06:17:56;101602.41;;;18.55;77.26
64908;BME280;51412;52.236;5.188;2022-08-21T06:20:23;101607.69;;;18.62;78.14
64908;BME280;51412;52.236;5.188;2022-08-21T06:22:50;101613.78;;;18.70;77.98
64908;BME280;51412;52.236;5.188;2022-08-21T06:25:17;101608.34;;;18.74;77.08
64908;BME280;51412;52.236;5.188;2022-08-21T06:27:44;101611.09;;;18.70;77.50
64908;BME280;51412;52.236;5.188;2022-08-21T06:30:13;101614.94;;;18.73;77.10
64908;BME280;51412;52.236;5.188;2022-08-21T06:32:39;101606.50;;;18.67;77.01
64908;BME280;51412;52.236;5.188;2022-08-21T06:35:07;101607.28;;;18.67;77.21
64908;BME280;51412;52.236;5.188;2022-08-21T06:37:33;101612.28;;;18.65;77.57
64908;BME280;51412;52.236;5.188;2022-08-21T06:40:00;101612.59;;;18.71;77.50
64908;BME280;51412;52.236;5.188;2022-08-21T06:42:27;101608.72;;;18.76;77.56
64908;BME280;51412;52.236;5.188;2022-08-21T06:44:54;101605.97;;;18.79;77.75
64908;BME280;51412;52.236;5.188;2022-08-21T06:47:21;101614.06;;;18.79;77.62
64908;BME280;51412;52.236;5.188;2022-08-21T06:49:48;101612.88;;;18.84;77.88
64908;BME280;51412;52.236;5.188;2022-08-21T06:52:15;101611.22;;;18.97;77.80
64908;BME280;51412;52.236;5.188;2022-08-21T06:54:42;101595.78;;;19.01;77.43
64908;BME280;51412;52.236;5.188;2022-08-21T06:57:09;101602.25;;;19.08;77.37
64908;BME280;51412;52.236;5.188;2022-08-21T06:59:35;101602.19;;;19.15;77.42
64908;BME280;51412;52.236;5.188;2022-08-21T07:02:02;101600.63;;;19.17;77.23
64908;BME280;51412;52.236;5.188;2022-08-21T07:04:30;101602.97;;;19.12;77.41
64908;BME280;51412;52.236;5.188;2022-08-21T07:06:57;101604.50;;;19.13;77.44
64908;BME280;51412;52.236;5.188;2022-08-21T07:09:23;101603.66;;;19.19;77.45
64908;BME280;51412;52.236;5.188;2022-08-21T07:11:52;101603.44;;;19.38;77.55
64908;BME280;51412;52.236;5.188;2022-08-21T07:14:19;101601.38;;;19.49;77.32
64908;BME280;51412;52.236;5.188;2022-08-21T07:16:46;101605.03;;;19.62;76.73
64908;BME280;51412;52.236;5.188;2022-08-21T07:19:13;101610.03;;;19.64;76.28
64908;BME280;51412;52.236;5.188;2022-08-21T07:21:41;101608.91;;;19.61;76.38
64908;BME280;51412;52.236;5.188;2022-08-21T07:24:07;101607.34;;;19.64;76.27
64908;BME280;51412;52.236;5.188;2022-08-21T07:26:34;101621.84;;;19.74;76.47
64908;BME280;51412;52.236;5.188;2022-08-21T07:29:01;101605.59;;;19.81;75.99
64908;BME280;51412;52.236;5.188;2022-08-21T07:31:28;101613.28;;;19.82;75.92
64908;BME280;51412;52.236;5.188;2022-08-21T07:33:55;101617.09;;;19.85;76.11
64908;BME280;51412;52.236;5.188;2022-08-21T07:36:21;101607.00;;;19.89;75.77
64908;BME280;51412;52.236;5.188;2022-08-21T07:38:49;101613.00;;;20.00;75.96
64908;BME280;51412;52.236;5.188;2022-08-21T07:41:18;101615.94;;;20.10;75.49
64908;BME280;51412;52.236;5.188;2022-08-21T07:43:45;101616.66;;;20.14;75.35
64908;BME280;51412;52.236;5.188;2022-08-21T07:46:13;101621.13;;;20.24;75.03
64908;BME280;51412;52.236;5.188;2022-08-21T07:48:39;101613.59;;;20.35;74.94
64908;BME280;51412;52.236;5.188;2022-08-21T07:51:08;101623.34;;;20.53;75.01
64908;BME280;51412;52.236;5.188;2022-08-21T07:53:36;101621.22;;;20.64;74.64
64908;BME280;51412;52.236;5.188;2022-08-21T07:56:05;101626.38;;;20.79;74.17
64908;BME280;51412;52.236;5.188;2022-08-21T07:58:33;101621.22;;;20.88;73.34
64908;BME280;51412;52.236;5.188;2022-08-21T08:01:00;101610.66;;;20.94;72.86
64908;BME280;51412;52.236;5.188;2022-08-21T08:03:27;101617.41;;;21.06;72.67
64908;BME280;51412;52.236;5.188;2022-08-21T08:05:54;101609.34;;;21.22;72.16
64908;BME280;51412;52.236;5.188;2022-08-21T08:08:20;101609.44;;;21.35;71.94
64908;BME280;51412;52.236;5.188;2022-08-21T08:10:47;101601.78;;;21.50;71.69
64908;BME280;51412;52.236;5.188;2022-08-21T08:13:16;101602.19;;;21.68;71.44
64908;BME280;51412;52.236;5.188;2022-08-21T08:15:42;101607.97;;;21.87;70.69
64908;BME280;51412;52.236;5.188;2022-08-21T08:18:09;101609.81;;;22.07;70.13
64908;BME280;51412;52.236;5.188;2022-08-21T08:20:35;101610.34;;;22.18;69.12
64908;BME280;51412;52.236;5.188;2022-08-21T08:23:02;101607.00;;;22.27;68.71
64908;BME280;51412;52.236;5.188;2022-08-21T08:25:29;101609.06;;;22.39;68.29
64908;BME280;51412;52.236;5.188;2022-08-21T08:27:55;101604.47;;;22.52;68.22
64908;BME280;51412;52.236;5.188;2022-08-21T08:30:23;101601.81;;;22.65;68.10
64908;BME280;51412;52.236;5.188;2022-08-21T08:32:50;101604.91;;;22.80;67.54
64908;BME280;51412;52.236;5.188;2022-08-21T08:35:17;101607.16;;;22.82;66.69
64908;BME280;51412;52.236;5.188;2022-08-21T08:37:44;101610.31;;;22.80;66.28
64908;BME280;51412;52.236;5.188;2022-08-21T08:40:12;101606.28;;;22.72;66.55
64908;BME280;51412;52.236;5.188;2022-08-21T08:42:40;101598.25;;;22.68;67.10
64908;BME280;51412;52.236;5.188;2022-08-21T08:45:10;101604.91;;;22.80;66.82
64908;BME280;51412;52.236;5.188;2022-08-21T08:47:40;101605.88;;;22.86;66.35
64908;BME280;51412;52.236;5.188;2022-08-21T08:50:12;101605.56;;;22.84;66.38
64908;BME280;51412;52.236;5.188;2022-08-21T08:52:45;101604.03;;;22.83;66.40
64908;BME280;51412;52.236;5.188;2022-08-21T08:55:17;101603.28;;;22.83;66.71
64908;BME280;51412;52.236;5.188;2022-08-21T08:57:48;101598.38;;;22.78;66.55
64908;BME280;51412;52.236;5.188;2022-08-21T09:00:19;101599.34;;;22.71;66.33
64908;BME280;51412;52.236;5.188;2022-08-21T09:02:48;101597.72;;;22.74;66.32
64908;BME280;51412;52.236;5.188;2022-08-21T09:05:22;101591.66;;;22.82;66.53
64908;BME280;51412;52.236;5.188;2022-08-21T09:08:03;101599.06;;;22.95;65.99
64908;BME280;51412;52.236;5.188;2022-08-21T09:10:44;101596.91;;;23.02;65.70
64908;BME280;51412;52.236;5.188;2022-08-21T09:13:20;101594.22;;;23.02;65.50
64908;BME280;51412;52.236;5.188;2022-08-21T09:16:05;101592.81;;;22.98;65.48
64908;BME280;51412;52.236;5.188;2022-08-21T09:18:43;101601.03;;;22.94;65.63
64908;BME280;51412;52.236;5.188;2022-08-21T09:21:22;101601.38;;;22.96;66.01
64908;BME280;51412;52.236;5.188;2022-08-21T09:23:57;101600.63;;;23.09;65.72
64908;BME280;51412;52.236;5.188;2022-08-21T09:26:28;101602.75;;;23.30;64.47
64908;BME280;51412;52.236;5.188;2022-08-21T09:28:58;101612.41;;;23.44;64.06
64908;BME280;51412;52.236;5.188;2022-08-21T09:31:28;101601.88;;;23.33;63.56
64908;BME280;51412;52.236;5.188;2022-08-21T09:34:02;101606.56;;;23.33;63.92
64908;BME280;51412;52.236;5.188;2022-08-21T09:36:35;101603.50;;;23.31;63.93
64908;BME280;51412;52.236;5.188;2022-08-21T09:39:03;101607.19;;;23.37;63.42
64908;BME280;51412;52.236;5.188;2022-08-21T09:41:32;101601.47;;;23.48;63.35
64908;BME280;51412;52.236;5.188;2022-08-21T09:44:00;101611.78;;;23.53;63.30
64908;BME280;51412;52.236;5.188;2022-08-21T09:46:28;101603.94;;;23.55;62.68
64908;BME280;51412;52.236;5.188;2022-08-21T09:48:57;101602.22;;;23.48;62.66
64908;BME280;51412;52.236;5.188;2022-08-21T09:51:28;101598.97;;;23.53;62.65
64908;BME280;51412;52.236;5.188;2022-08-21T09:53:58;101594.28;;;23.54;62.41
64908;BME280;51412;52.236;5.188;2022-08-21T09:56:29;101584.28;;;23.77;63.27
64908;BME280;51412;52.236;5.188;2022-08-21T09:59:27;101590.56;;;23.99;60.80
64908;BME280;51412;52.236;5.188;2022-08-21T10:01:57;101588.06;;;24.05;61.64
64908;BME280;51412;52.236;5.188;2022-08-21T10:04:29;101594.78;;;24.13;61.38
64908;BME280;51412;52.236;5.188;2022-08-21T10:07:07;101586.78;;;24.32;61.68
64908;BME280;51412;52.236;5.188;2022-08-21T10:09:35;101588.75;;;24.53;59.81
64908;BME280;51412;52.236;5.188;2022-08-21T10:12:13;101588.31;;;24.55;57.51
64908;BME280;51412;52.236;5.188;2022-08-21T10:14:50;101589.69;;;24.60;57.97
64908;BME280;51412;52.236;5.188;2022-08-21T10:17:24;101584.25;;;24.73;58.50
64908;BME280;51412;52.236;5.188;2022-08-21T10:19:56;101583.00;;;24.96;57.47
64908;BME280;51412;52.236;5.188;2022-08-21T10:22:36;101589.56;;;25.08;57.06
64908;BME280;51412;52.236;5.188;2022-08-21T10:25:10;101580.97;;;25.09;56.73
64908;BME280;51412;52.236;5.188;2022-08-21T10:27:47;101579.91;;;25.07;56.33
64908;BME280;51412;52.236;5.188;2022-08-21T10:30:21;101578.59;;;24.89;55.80
64908;BME280;51412;52.236;5.188;2022-08-21T10:33:06;101590.69;;;24.66;55.94
64908;BME280;51412;52.236;5.188;2022-08-21T10:35:40;101579.53;;;24.51;57.10
64908;BME280;51412;52.236;5.188;2022-08-21T10:38:37;101594.50;;;24.33;57.49
64908;BME280;51412;52.236;5.188;2022-08-21T10:41:14;101585.44;;;24.14;57.35
64908;BME280;51412;52.236;5.188;2022-08-21T10:43:50;101580.91;;;23.98;57.78
64908;BME280;51412;52.236;5.188;2022-08-21T10:46:26;101585.78;;;24.03;58.18
64908;BME280;51412;52.236;5.188;2022-08-21T10:49:04;101580.84;;;24.24;58.22
64908;BME280;51412;52.236;5.188;2022-08-21T10:51:40;101586.59;;;24.26;57.99
64908;BME280;51412;52.236;5.188;2022-08-21T10:54:13;101581.38;;;24.19;58.04
64908;BME280;51412;52.236;5.188;2022-08-21T10:56:47;101586.63;;;24.13;58.48
64908;BME280;51412;52.236;5.188;2022-08-21T10:59:23;101581.00;;;24.08;59.17
64908;BME280;51412;52.236;5.188;2022-08-21T11:01:56;101579.28;;;24.01;59.16
64908;BME280;51412;52.236;5.188;2022-08-21T11:04:27;101583.94;;;24.00;60.20
64908;BME280;51412;52.236;5.188;2022-08-21T11:06:59;101573.75;;;24.27;58.86
64908;BME280;51412;52.236;5.188;2022-08-21T11:09:28;101572.38;;;24.44;57.28
64908;BME280;51412;52.236;5.188;2022-08-21T11:12:00;101573.22;;;24.54;56.69
64908;BME280;51412;52.236;5.188;2022-08-21T11:14:31;101572.84;;;24.65;57.11
64908;BME280;51412;52.236;5.188;2022-08-21T11:17:08;101560.47;;;24.86;56.08
64908;BME280;51412;52.236;5.188;2022-08-21T11:19:39;101569.34;;;25.09;55.62
64908;BME280;51412;52.236;5.188;2022-08-21T11:22:14;101575.00;;;25.24;54.86
64908;BME280;51412;52.236;5.188;2022-08-21T11:24:47;101577.13;;;25.29;54.22
64908;BME280;51412;52.236;5.188;2022-08-21T11:27:21;101580.06;;;25.34;54.22
64908;BME280;51412;52.236;5.188;2022-08-21T11:29:52;101575.25;;;25.48;53.75
64908;BME280;51412;52.236;5.188;2022-08-21T11:32:39;101570.75;;;25.63;52.30
64908;BME280;51412;52.236;5.188;2022-08-21T11:35:19;101575.03;;;25.74;51.83
64908;BME280;51412;52.236;5.188;2022-08-21T11:37:57;101573.97;;;25.71;51.58
64908;BME280;51412;52.236;5.188;2022-08-21T11:40:43;101572.16;;;25.86;52.18
64908;BME280;51412;52.236;5.188;2022-08-21T11:43:21;101576.69;;;25.89;51.47
64908;BME280;51412;52.236;5.188;2022-08-21T11:45:53;101583.06;;;25.86;51.36
64908;BME280;51412;52.236;5.188;2022-08-21T11:48:32;101588.81;;;25.79;51.45
64908;BME280;51412;52.236;5.188;2022-08-21T11:51:04;101583.50;;;25.76;51.69
64908;BME280;51412;52.236;5.188;2022-08-21T11:53:38;101593.19;;;25.86;52.29
64908;BME280;51412;52.236;5.188;2022-08-21T11:56:14;101582.03;;;26.02;51.73
64908;BME280;51412;52.236;5.188;2022-08-21T11:58:46;101587.19;;;26.19;51.23
64908;BME280;51412;52.236;5.188;2022-08-21T12:01:19;101585.06;;;26.32;51.23
64908;BME280;51412;52.236;5.188;2022-08-21T12:04:00;101585.81;;;26.51;50.55
64908;BME280;51412;52.236;5.188;2022-08-21T12:06:30;101590.22;;;26.58;48.86
64908;BME280;51412;52.236;5.188;2022-08-21T12:08:59;101592.34;;;26.45;49.72
64908;BME280;51412;52.236;5.188;2022-08-21T12:11:27;101582.97;;;26.27;49.23
64908;BME280;51412;52.236;5.188;2022-08-21T12:13:58;101579.63;;;26.14;49.41
64908;BME280;51412;52.236;5.188;2022-08-21T12:16:31;101580.94;;;26.00;49.86
64908;BME280;51412;52.236;5.188;2022-08-21T12:19:04;101586.28;;;26.03;49.67
64908;BME280;51412;52.236;5.188;2022-08-21T12:21:31;101583.56;;;26.13;49.86
64908;BME280;51412;52.236;5.188;2022-08-21T12:24:05;101589.63;;;26.35;48.77
64908;BME280;51412;52.236;5.188;2022-08-21T12:26:35;101588.09;;;26.44;48.79
64908;BME280;51412;52.236;5.188;2022-08-21T12:29:14;101587.94;;;26.38;48.47
64908;BME280;51412;52.236;5.188;2022-08-21T12:31:51;101586.47;;;26.28;48.64
64908;BME280;51412;52.236;5.188;2022-08-21T12:34:19;101589.47;;;26.20;49.22
64908;BME280;51412;52.236;5.188;2022-08-21T12:36:50;101593.09;;;26.27;49.33
64908;BME280;51412;52.236;5.188;2022-08-21T12:39:24;101590.22;;;26.39;49.28
64908;BME280;51412;52.236;5.188;2022-08-21T12:41:58;101585.97;;;26.57;48.58
64908;BME280;51412;52.236;5.188;2022-08-21T12:44:31;101586.69;;;26.67;48.45
64908;BME280;51412;52.236;5.188;2022-08-21T12:47:04;101587.34;;;26.62;47.85
64908;BME280;51412;52.236;5.188;2022-08-21T12:49:34;101589.00;;;26.50;48.15
64908;BME280;51412;52.236;5.188;2022-08-21T12:52:07;101592.94;;;26.49;47.85
64908;BME280;51412;52.236;5.188;2022-08-21T12:54:38;101594.91;;;26.58;47.50
64908;BME280;51412;52.236;5.188;2022-08-21T12:57:08;101589.72;;;26.69;48.10
64908;BME280;51412;52.236;5.188;2022-08-21T12:59:37;101588.97;;;26.87;47.77
64908;BME280;51412;52.236;5.188;2022-08-21T13:02:15;101592.72;;;26.99;46.51